sensor_id;sensor_type;location;lat;lon;timestamp;pressure;altitude;pressure_sealevel;temperature;humidity
77526;BME280;66627;29.424;-98.496;2023-06-14T00:00:59;97971.02;;;35.09;34.75
77526;BME280;66627;29.424;-98.496;2023-06-14T00:03:25;97971.54;;;34.98;35.13
77526;BME280;66627;29.424;-98.496;2023-06-14T00:05:50;97975.50;;;34.45;35.39
77526;BME280;66627;29.424;-98.496;2023-06-14T00:08:15;97974.67;;;35.32;35.46
77526;BME280;66627;29.424;-98.496;2023-06-14T00:10:41;97968.57;;;35.19;35.52
77526;BME280;66627;29.424;-98.496;2023-06-14T00:13:06;97969.44;;;35.41;35.66
77526;BME280;66627;29.424;-98.496;2023-06-14T00:15:32;97971.87;;;35.73;35.52
77526;BME280;66627;29.424;-98.496;2023-06-14T00:17:56;97975.92;;;35.93;34.86
77526;BME280;66627;29.424;-98.496;2023-06-14T00:20:22;97977.27;;;35.99;34.99
77526;BME280;66627;29.424;-98.496;2023-06-14T00:22:48;97981.81;;;35.60;35.19
77526;BME280;66627;29.424;-98.496;2023-06-14T00:25:13;97983.42;;;35.48;34.93
77526;BME280;66627;29.424;-98.496;2023-06-14T00:27:39;97985.33;;;35.75;34.30
77526;BME280;66627;29.424;-98.496;2023-06-14T00:30:05;97987.93;;;35.16;35.90
77526;BME280;66627;29.424;-98.496;2023-06-14T00:32:30;97993.73;;;35.75;35.05
77526;BME280;66627;29.424;-98.496;2023-06-14T00:34:55;97994.09;;;35.72;35.18
77526;BME280;66627;29.424;-98.496;2023-06-14T00:37:20;97987.20;;;35.02;35.21
77526;BME280;66627;29.424;-98.496;2023-06-14T00:39:46;97989.50;;;35.77;34.73
77526;BME280;66627;29.424;-98.496;2023-06-14T00:42:11;97993.09;;;35.71;34.93
77526;BME280;66627;29.424;-98.496;2023-06-14T00:44:36;97994.14;;;35.30;35.39
77526;BME280;66627;29.424;-98.496;2023-06-14T00:47:01;97999.40;;;34.83;35.21
77526;BME280;66627;29.424;-98.496;2023-06-14T00:49:27;97994.93;;;35.05;35.18
77526;BME280;66627;29.424;-98.496;2023-06-14T00:51:52;97999.86;;;35.16;35.06
77526;BME280;66627;29.424;-98.496;2023-06-14T00:54:18;98003.18;;;35.22;34.96
77526;BME280;66627;29.424;-98.496;2023-06-14T00:56:44;98008.93;;;35.24;35.59
77526;BME280;66627;29.424;-98.496;2023-06-14T00:59:10;98011.78;;;34.51;35.77
77526;BME280;66627;29.424;-98.496;2023-06-14T01:01:34;98015.58;;;34.41;36.19
77526;BME280;66627;29.424;-98.496;2023-06-14T01:04:00;98010.60;;;34.08;36.31
77526;BME280;66627;29.424;-98.496;2023-06-14T01:06:33;98008.03;;;34.70;35.83
77526;BME280;66627;29.424;-98.496;2023-06-14T01:08:56;98005.63;;;34.20;36.38
77526;BME280;66627;29.424;-98.496;2023-06-14T01:11:22;98008.87;;;34.26;36.69
77526;BME280;66627;29.424;-98.496;2023-06-14T01:13:45;98006.31;;;34.24;37.11
77526;BME280;66627;29.424;-98.496;2023-06-14T01:16:08;98004.74;;;34.17;36.91
77526;BME280;66627;29.424;-98.496;2023-06-14T01:18:33;98005.08;;;34.46;37.00
77526;BME280;66627;29.424;-98.496;2023-06-14T01:20:58;98003.18;;;34.29;37.07
77526;BME280;66627;29.424;-98.496;2023-06-14T01:23:24;98003.88;;;34.41;36.76
77526;BME280;66627;29.424;-98.496;2023-06-14T01:25:49;97999.69;;;34.47;36.82
77526;BME280;66627;29.424;-98.496;2023-06-14T01:28:16;97997.60;;;33.90;37.04
77526;BME280;66627;29.424;-98.496;2023-06-14T01:30:42;98005.63;;;34.32;37.01
77526;BME280;66627;29.424;-98.496;2023-06-14T01:33:05;98010.62;;;33.65;37.65
77526;BME280;66627;29.424;-98.496;2023-06-14T01:35:30;98013.10;;;34.03;37.13
77526;BME280;66627;29.424;-98.496;2023-06-14T01:37:56;98013.35;;;34.28;37.19
77526;BME280;66627;29.424;-98.496;2023-06-14T01:40:22;98015.54;;;34.31;37.23
77526;BME280;66627;29.424;-98.496;2023-06-14T01:42:47;98018.93;;;33.71;38.24
77526;BME280;66627;29.424;-98.496;2023-06-14T01:45:12;98022.01;;;33.47;38.40
77526;BME280;66627;29.424;-98.496;2023-06-14T01:47:37;98024.81;;;33.23;40.00
77526;BME280;66627;29.424;-98.496;2023-06-14T01:50:04;98024.15;;;32.74;40.94
77526;BME280;66627;29.424;-98.496;2023-06-14T01:52:29;98031.16;;;33.01;40.66
77526;BME280;66627;29.424;-98.496;2023-06-14T01:54:54;98033.79;;;32.93;41.10
77526;BME280;66627;29.424;-98.496;2023-06-14T01:57:20;98034.92;;;33.19;40.82
77526;BME280;66627;29.424;-98.496;2023-06-14T01:59:45;98033.57;;;33.20;41.00
77526;BME280;66627;29.424;-98.496;2023-06-14T02:02:10;98039.18;;;33.09;41.97
77526;BME280;66627;29.424;-98.496;2023-06-14T02:04:36;98045.63;;;33.08;41.61
77526;BME280;66627;29.424;-98.496;2023-06-14T02:07:01;98043.67;;;32.90;42.04
77526;BME280;66627;29.424;-98.496;2023-06-14T02:09:28;98045.69;;;32.67;42.78
77526;BME280;66627;29.424;-98.496;2023-06-14T02:11:52;98044.96;;;32.74;42.63
77526;BME280;66627;29.424;-98.496;2023-06-14T02:14:18;98048.93;;;32.13;43.21
77526;BME280;66627;29.424;-98.496;2023-06-14T02:16:43;98058.01;;;32.53;43.58
77526;BME280;66627;29.424;-98.496;2023-06-14T02:19:08;98070.84;;;32.27;43.67
77526;BME280;66627;29.424;-98.496;2023-06-14T02:21:34;98077.27;;;32.45;43.32
77526;BME280;66627;29.424;-98.496;2023-06-14T02:23:59;98075.77;;;32.29;43.66
77526;BME280;66627;29.424;-98.496;2023-06-14T02:26:24;98073.23;;;31.89;44.61
77526;BME280;66627;29.424;-98.496;2023-06-14T02:28:49;98073.45;;;31.59;45.32
77526;BME280;66627;29.424;-98.496;2023-06-14T02:31:15;98079.92;;;31.14;46.43
77526;BME280;66627;29.424;-98.496;2023-06-14T02:33:41;98080.30;;;30.79;47.32
77526;BME280;66627;29.424;-98.496;2023-06-14T02:36:06;98083.35;;;31.88;46.33
77526;BME280;66627;29.424;-98.496;2023-06-14T02:38:32;98089.11;;;32.32;45.72
77526;BME280;66627;29.424;-98.496;2023-06-14T02:40:57;98091.04;;;31.42;47.44
77526;BME280;66627;29.424;-98.496;2023-06-14T02:43:22;98096.48;;;31.05;47.50
77526;BME280;66627;29.424;-98.496;2023-06-14T02:45:48;98106.79;;;31.77;47.30
77526;BME280;66627;29.424;-98.496;2023-06-14T02:48:14;98109.70;;;30.60;48.78
77526;BME280;66627;29.424;-98.496;2023-06-14T02:50:39;98118.30;;;31.45;48.28
77526;BME280;66627;29.424;-98.496;2023-06-14T02:53:05;98118.24;;;31.26;48.42
77526;BME280;66627;29.424;-98.496;2023-06-14T02:55:30;98119.76;;;31.69;47.99
77526;BME280;66627;29.424;-98.496;2023-06-14T02:57:56;98120.46;;;31.22;48.97
77526;BME280;66627;29.424;-98.496;2023-06-14T03:00:21;98121.23;;;31.40;48.55
77526;BME280;66627;29.424;-98.496;2023-06-14T03:02:46;98121.70;;;31.33;48.69
77526;BME280;66627;29.424;-98.496;2023-06-14T03:05:12;98124.38;;;31.15;48.71
77526;BME280;66627;29.424;-98.496;2023-06-14T03:07:37;98118.58;;;30.97;49.44
77526;BME280;66627;29.424;-98.496;2023-06-14T03:10:03;98124.43;;;30.54;50.10
77526;BME280;66627;29.424;-98.496;2023-06-14T03:12:28;98124.80;;;30.23;50.43
77526;BME280;66627;29.424;-98.496;2023-06-14T03:14:54;98120.26;;;30.47;50.38
77526;BME280;66627;29.424;-98.496;2023-06-14T03:17:19;98128.00;;;30.60;50.13
77526;BME280;66627;29.424;-98.496;2023-06-14T03:19:44;98130.97;;;30.55;50.41
77526;BME280;66627;29.424;-98.496;2023-06-14T03:22:10;98138.13;;;30.67;50.31
77526;BME280;66627;29.424;-98.496;2023-06-14T03:24:35;98137.37;;;29.58;52.32
77526;BME280;66627;29.424;-98.496;2023-06-14T03:27:01;98138.78;;;29.85;51.85
77526;BME280;66627;29.424;-98.496;2023-06-14T03:29:26;98142.89;;;30.67;50.28
77526;BME280;66627;29.424;-98.496;2023-06-14T03:31:59;98144.34;;;30.20;51.27
77526;BME280;66627;29.424;-98.496;2023-06-14T03:34:17;98147.09;;;30.03;51.38
77526;BME280;66627;29.424;-98.496;2023-06-14T03:36:43;98150.80;;;29.35;52.71
77526;BME280;66627;29.424;-98.496;2023-06-14T03:39:09;98147.99;;;29.45;52.51
77526;BME280;66627;29.424;-98.496;2023-06-14T03:41:33;98145.25;;;29.60;52.38
77526;BME280;66627;29.424;-98.496;2023-06-14T03:43:59;98149.65;;;30.05;52.29
77526;BME280;66627;29.424;-98.496;2023-06-14T03:46:24;98153.50;;;29.57;52.80
77526;BME280;66627;29.424;-98.496;2023-06-14T03:48:50;98154.55;;;29.65;52.60
77526;BME280;66627;29.424;-98.496;2023-06-14T03:51:16;98160.12;;;29.45;52.41
77526;BME280;66627;29.424;-98.496;2023-06-14T03:53:40;98160.97;;;29.74;52.17
77526;BME280;66627;29.424;-98.496;2023-06-14T03:56:06;98158.63;;;29.96;52.31
77526;BME280;66627;29.424;-98.496;2023-06-14T03:58:31;98167.52;;;29.96;52.37
77526;BME280;66627;29.424;-98.496;2023-06-14T04:00:57;98171.84;;;29.78;52.15
77526;BME280;66627;29.424;-98.496;2023-06-14T04:03:22;98177.35;;;30.01;51.80
77526;BME280;66627;29.424;-98.496;2023-06-14T04:05:48;98178.11;;;29.60;51.90
77526;BME280;66627;29.424;-98.496;2023-06-14T04:08:14;98176.12;;;29.67;52.37
77526;BME280;66627;29.424;-98.496;2023-06-14T04:10:39;98178.40;;;29.86;52.62
77526;BME280;66627;29.424;-98.496;2023-06-14T04:13:05;98171.53;;;29.73;52.67
77526;BME280;66627;29.424;-98.496;2023-06-14T04:15:31;98178.38;;;29.75;52.62
77526;BME280;66627;29.424;-98.496;2023-06-14T04:17:56;98191.46;;;29.52;53.04
77526;BME280;66627;29.424;-98.496;2023-06-14T04:20:21;98186.80;;;29.55;52.57
77526;BME280;66627;29.424;-98.496;2023-06-14T04:22:46;98180.95;;;29.57;52.30
77526;BME280;66627;29.424;-98.496;2023-06-14T04:25:12;98185.59;;;29.59;52.87
77526;BME280;66627;29.424;-98.496;2023-06-14T04:27:38;98191.56;;;29.16;53.58
77526;BME280;66627;29.424;-98.496;2023-06-14T04:30:04;98201.89;;;28.83;54.05
77526;BME280;66627;29.424;-98.496;2023-06-14T04:32:29;98202.58;;;29.17;53.65
77526;BME280;66627;29.424;-98.496;2023-06-14T04:34:59;98203.32;;;29.11;54.13
77526;BME280;66627;29.424;-98.496;2023-06-14T04:37:20;98198.36;;;28.91;54.04
77526;BME280;66627;29.424;-98.496;2023-06-14T04:39:45;98191.18;;;29.40;53.23
77526;BME280;66627;29.424;-98.496;2023-06-14T04:42:10;98183.85;;;29.27;53.58
77526;BME280;66627;29.424;-98.496;2023-06-14T04:44:35;98183.50;;;29.64;52.66
77526;BME280;66627;29.424;-98.496;2023-06-14T04:47:01;98189.54;;;29.51;52.63
77526;BME280;66627;29.424;-98.496;2023-06-14T04:49:26;98197.27;;;29.59;52.49
77526;BME280;66627;29.424;-98.496;2023-06-14T04:51:51;98204.40;;;29.45;53.17
77526;BME280;66627;29.424;-98.496;2023-06-14T04:54:17;98203.91;;;29.48;52.85
77526;BME280;66627;29.424;-98.496;2023-06-14T04:56:42;98201.62;;;29.06;53.15
77526;BME280;66627;29.424;-98.496;2023-06-14T04:59:08;98199.56;;;28.75;54.22
77526;BME280;66627;29.424;-98.496;2023-06-14T05:01:34;98198.67;;;28.15;55.10
77526;BME280;66627;29.424;-98.496;2023-06-14T05:03:58;98200.74;;;28.48;54.50
77526;BME280;66627;29.424;-98.496;2023-06-14T05:06:24;98201.71;;;28.20;55.46
77526;BME280;66627;29.424;-98.496;2023-06-14T05:08:49;98204.66;;;28.12;55.87
77526;BME280;66627;29.424;-98.496;2023-06-14T05:11:14;98208.48;;;27.94;55.76
77526;BME280;66627;29.424;-98.496;2023-06-14T05:13:40;98209.58;;;28.11;55.57
77526;BME280;66627;29.424;-98.496;2023-06-14T05:16:06;98198.22;;;29.03;53.69
77526;BME280;66627;29.424;-98.496;2023-06-14T05:18:32;98199.98;;;28.73;54.52
77526;BME280;66627;29.424;-98.496;2023-06-14T05:20:57;98194.31;;;28.64;54.50
77526;BME280;66627;29.424;-98.496;2023-06-14T05:23:22;98189.80;;;28.85;54.03
77526;BME280;66627;29.424;-98.496;2023-06-14T05:25:48;98193.83;;;28.27;55.35
77526;BME280;66627;29.424;-98.496;2023-06-14T05:28:13;98194.35;;;28.45;54.78
77526;BME280;66627;29.424;-98.496;2023-06-14T05:30:39;98197.53;;;28.23;55.09
77526;BME280;66627;29.424;-98.496;2023-06-14T05:33:04;98198.08;;;28.00;55.36
77526;BME280;66627;29.424;-98.496;2023-06-14T05:35:29;98200.34;;;28.20;55.73
77526;BME280;66627;29.424;-98.496;2023-06-14T05:37:54;98199.48;;;28.26;55.20
77526;BME280;66627;29.424;-98.496;2023-06-14T05:40:20;98191.73;;;28.08;55.42
77526;BME280;66627;29.424;-98.496;2023-06-14T05:42:46;98186.66;;;28.49;54.85
77526;BME280;66627;29.424;-98.496;2023-06-14T05:45:11;98182.41;;;28.06;55.45
77526;BME280;66627;29.424;-98.496;2023-06-14T05:47:37;98178.77;;;28.50;55.34
77526;BME280;66627;29.424;-98.496;2023-06-14T05:50:03;98179.55;;;28.47;55.07
77526;BME280;66627;29.424;-98.496;2023-06-14T05:52:28;98171.74;;;28.38;54.21
77526;BME280;66627;29.424;-98.496;2023-06-14T05:54:54;98171.34;;;28.62;54.67
77526;BME280;66627;29.424;-98.496;2023-06-14T05:57:20;98164.33;;;28.76;54.01
77526;BME280;66627;29.424;-98.496;2023-06-14T05:59:45;98157.56;;;28.86;53.72
77526;BME280;66627;29.424;-98.496;2023-06-14T06:02:11;98154.75;;;28.15;55.00
77526;BME280;66627;29.424;-98.496;2023-06-14T06:04:36;98156.49;;;27.81;55.49
77526;BME280;66627;29.424;-98.496;2023-06-14T06:07:01;98149.87;;;28.73;54.26
77526;BME280;66627;29.424;-98.496;2023-06-14T06:09:26;98153.28;;;28.46;54.25
77526;BME280;66627;29.424;-98.496;2023-06-14T06:11:52;98153.77;;;28.89;53.83
77526;BME280;66627;29.424;-98.496;2023-06-14T06:14:18;98147.63;;;28.86;54.02
77526;BME280;66627;29.424;-98.496;2023-06-14T06:16:43;98147.08;;;28.72;54.26
77526;BME280;66627;29.424;-98.496;2023-06-14T06:19:08;98140.62;;;28.24;54.26
77526;BME280;66627;29.424;-98.496;2023-06-14T06:21:34;98137.45;;;28.68;53.82
77526;BME280;66627;29.424;-98.496;2023-06-14T06:23:59;98132.97;;;28.77;53.75
77526;BME280;66627;29.424;-98.496;2023-06-14T06:28:50;98129.59;;;28.77;54.05
77526;BME280;66627;29.424;-98.496;2023-06-14T06:31:16;98126.60;;;28.81;53.70
77526;BME280;66627;29.424;-98.496;2023-06-14T06:33:42;98121.31;;;28.95;53.62
77526;BME280;66627;29.424;-98.496;2023-06-14T06:36:07;98123.60;;;28.41;54.73
77526;BME280;66627;29.424;-98.496;2023-06-14T06:38:32;98121.22;;;28.26;54.72
77526;BME280;66627;29.424;-98.496;2023-06-14T06:40:58;98124.15;;;28.58;54.00
77526;BME280;66627;29.424;-98.496;2023-06-14T06:43:23;98120.10;;;29.57;52.56
77526;BME280;66627;29.424;-98.496;2023-06-14T06:45:48;98124.99;;;28.88;54.00
77526;BME280;66627;29.424;-98.496;2023-06-14T06:48:14;98120.90;;;28.71;54.29
77526;BME280;66627;29.424;-98.496;2023-06-14T06:50:40;98122.69;;;28.83;54.54
77526;BME280;66627;29.424;-98.496;2023-06-14T06:53:04;98120.87;;;28.77;54.17
77526;BME280;66627;29.424;-98.496;2023-06-14T06:55:30;98118.44;;;29.38;52.91
77526;BME280;66627;29.424;-98.496;2023-06-14T06:57:55;98120.93;;;28.95;53.71
77526;BME280;66627;29.424;-98.496;2023-06-14T07:00:21;98120.57;;;28.69;54.02
77526;BME280;66627;29.424;-98.496;2023-06-14T07:02:46;98115.94;;;27.85;55.48
77526;BME280;66627;29.424;-98.496;2023-06-14T07:05:11;98115.37;;;28.84;54.23
77526;BME280;66627;29.424;-98.496;2023-06-14T07:07:37;98117.49;;;28.71;54.48
77526;BME280;66627;29.424;-98.496;2023-06-14T07:10:02;98116.22;;;28.28;55.05
77526;BME280;66627;29.424;-98.496;2023-06-14T07:12:28;98115.65;;;28.31;55.05
77526;BME280;66627;29.424;-98.496;2023-06-14T07:14:54;98113.30;;;28.16;55.62
77526;BME280;66627;29.424;-98.496;2023-06-14T07:17:19;98113.47;;;28.48;55.19
77526;BME280;66627;29.424;-98.496;2023-06-14T07:19:44;98110.94;;;27.69;56.32
77526;BME280;66627;29.424;-98.496;2023-06-14T07:22:10;98107.74;;;28.44;55.73
77526;BME280;66627;29.424;-98.496;2023-06-14T07:24:36;98109.19;;;28.31;55.80
77526;BME280;66627;29.424;-98.496;2023-06-14T07:27:01;98113.05;;;27.69;56.23
77526;BME280;66627;29.424;-98.496;2023-06-14T07:29:27;98113.50;;;27.68;56.69
77526;BME280;66627;29.424;-98.496;2023-06-14T07:31:54;98112.80;;;27.50;57.32
77526;BME280;66627;29.424;-98.496;2023-06-14T07:34:18;98098.90;;;27.75;56.79
77526;BME280;66627;29.424;-98.496;2023-06-14T07:36:43;98096.71;;;27.92;56.59
77526;BME280;66627;29.424;-98.496;2023-06-14T07:39:09;98099.65;;;27.47;57.09
77526;BME280;66627;29.424;-98.496;2023-06-14T07:41:34;98101.21;;;27.38;57.34
77526;BME280;66627;29.424;-98.496;2023-06-14T07:44:00;98102.52;;;27.34;57.20
77526;BME280;66627;29.424;-98.496;2023-06-14T07:46:26;98102.08;;;27.22;57.60
77526;BME280;66627;29.424;-98.496;2023-06-14T07:48:51;98096.41;;;27.27;58.08
77526;BME280;66627;29.424;-98.496;2023-06-14T07:51:16;98090.12;;;27.65;57.24
77526;BME280;66627;29.424;-98.496;2023-06-14T07:56:08;98084.79;;;27.52;58.47
77526;BME280;66627;29.424;-98.496;2023-06-14T07:58:33;98082.17;;;27.45;57.79
77526;BME280;66627;29.424;-98.496;2023-06-14T08:00:58;98088.59;;;26.98;58.62
77526;BME280;66627;29.424;-98.496;2023-06-14T08:03:23;98088.80;;;27.86;57.44
77526;BME280;66627;29.424;-98.496;2023-06-14T08:05:48;98086.66;;;27.39;57.93
77526;BME280;66627;29.424;-98.496;2023-06-14T08:08:14;98087.01;;;27.83;57.41
77526;BME280;66627;29.424;-98.496;2023-06-14T08:10:39;98084.64;;;27.33;57.92
77526;BME280;66627;29.424;-98.496;2023-06-14T08:13:07;98081.34;;;27.06;58.80
77526;BME280;66627;29.424;-98.496;2023-06-14T08:15:31;98082.50;;;26.70;58.94
77526;BME280;66627;29.424;-98.496;2023-06-14T08:17:56;98086.73;;;26.96;59.51
77526;BME280;66627;29.424;-98.496;2023-06-14T08:20:21;98092.00;;;26.99;58.48
77526;BME280;66627;29.424;-98.496;2023-06-14T08:22:46;98090.15;;;27.10;58.31
77526;BME280;66627;29.424;-98.496;2023-06-14T08:25:12;98086.39;;;27.20;58.42
77526;BME280;66627;29.424;-98.496;2023-06-14T08:27:38;98081.89;;;26.66;59.22
77526;BME280;66627;29.424;-98.496;2023-06-14T08:30:05;98079.29;;;27.39;57.54
77526;BME280;66627;29.424;-98.496;2023-06-14T08:32:29;98079.72;;;26.92;58.98
77526;BME280;66627;29.424;-98.496;2023-06-14T08:34:54;98079.45;;;27.18;58.32
77526;BME280;66627;29.424;-98.496;2023-06-14T08:37:20;98078.04;;;26.88;58.63
77526;BME280;66627;29.424;-98.496;2023-06-14T08:39:46;98075.50;;;27.52;57.61
77526;BME280;66627;29.424;-98.496;2023-06-14T08:42:11;98074.89;;;27.49;58.30
77526;BME280;66627;29.424;-98.496;2023-06-14T08:44:37;98076.11;;;27.55;57.51
77526;BME280;66627;29.424;-98.496;2023-06-14T08:47:02;98078.62;;;27.91;56.80
77526;BME280;66627;29.424;-98.496;2023-06-14T08:49:28;98086.53;;;27.11;57.62
77526;BME280;66627;29.424;-98.496;2023-06-14T08:51:59;98087.75;;;27.41;57.45
77526;BME280;66627;29.424;-98.496;2023-06-14T08:54:18;98087.38;;;27.17;57.80
77526;BME280;66627;29.424;-98.496;2023-06-14T08:56:44;98092.71;;;26.99;58.00
77526;BME280;66627;29.424;-98.496;2023-06-14T08:59:10;98094.28;;;27.42;57.49
77526;BME280;66627;29.424;-98.496;2023-06-14T09:01:35;98085.05;;;28.09;55.84
77526;BME280;66627;29.424;-98.496;2023-06-14T09:04:00;98090.00;;;27.53;56.73
77526;BME280;66627;29.424;-98.496;2023-06-14T09:06:25;98091.33;;;27.22;57.39
77526;BME280;66627;29.424;-98.496;2023-06-14T09:08:51;98083.94;;;27.58;56.72
77526;BME280;66627;29.424;-98.496;2023-06-14T09:11:17;98081.76;;;27.63;56.60
77526;BME280;66627;29.424;-98.496;2023-06-14T09:13:42;98086.89;;;27.51;56.46
77526;BME280;66627;29.424;-98.496;2023-06-14T09:16:07;98092.10;;;26.91;57.97
77526;BME280;66627;29.424;-98.496;2023-06-14T09:18:37;98095.12;;;27.22;56.92
77526;BME280;66627;29.424;-98.496;2023-06-14T09:20:59;98095.73;;;26.38;58.22
77526;BME280;66627;29.424;-98.496;2023-06-14T09:23:23;98099.94;;;26.77;57.57
77526;BME280;66627;29.424;-98.496;2023-06-14T09:25:50;98100.46;;;27.21;56.70
77526;BME280;66627;29.424;-98.496;2023-06-14T09:28:14;98098.20;;;26.63;57.30
77526;BME280;66627;29.424;-98.496;2023-06-14T09:30:40;98097.58;;;26.88;57.49
77526;BME280;66627;29.424;-98.496;2023-06-14T09:33:06;98099.13;;;27.04;57.03
77526;BME280;66627;29.424;-98.496;2023-06-14T09:35:32;98102.21;;;26.79;57.86
77526;BME280;66627;29.424;-98.496;2023-06-14T09:37:56;98106.55;;;27.05;57.40
77526;BME280;66627;29.424;-98.496;2023-06-14T09:40:23;98109.98;;;27.38;56.73
77526;BME280;66627;29.424;-98.496;2023-06-14T09:42:48;98113.44;;;27.42;56.30
77526;BME280;66627;29.424;-98.496;2023-06-14T09:45:12;98106.92;;;27.58;55.62
77526;BME280;66627;29.424;-98.496;2023-06-14T09:47:39;98104.79;;;28.07;54.79
77526;BME280;66627;29.424;-98.496;2023-06-14T09:50:03;98104.52;;;27.59;55.46
77526;BME280;66627;29.424;-98.496;2023-06-14T09:52:29;98104.21;;;28.05;54.57
77526;BME280;66627;29.424;-98.496;2023-06-14T09:54:55;98105.25;;;26.50;57.23
77526;BME280;66627;29.424;-98.496;2023-06-14T09:57:22;98101.95;;;26.71;57.31
77526;BME280;66627;29.424;-98.496;2023-06-14T09:59:47;98096.70;;;26.18;57.88
77526;BME280;66627;29.424;-98.496;2023-06-14T10:02:21;98094.28;;;26.72;57.99
77526;BME280;66627;29.424;-98.496;2023-06-14T10:04:37;98093.45;;;26.95;57.44
77526;BME280;66627;29.424;-98.496;2023-06-14T10:07:04;98094.09;;;26.41;57.57
77526;BME280;66627;29.424;-98.496;2023-06-14T10:09:29;98099.07;;;26.58;57.80
77526;BME280;66627;29.424;-98.496;2023-06-14T10:11:54;98100.20;;;27.24;56.97
77526;BME280;66627;29.424;-98.496;2023-06-14T10:14:19;98100.10;;;26.14;58.11
77526;BME280;66627;29.424;-98.496;2023-06-14T10:16:51;98104.52;;;26.77;57.73
77526;BME280;66627;29.424;-98.496;2023-06-14T10:19:17;98101.82;;;27.39;55.39
77526;BME280;66627;29.424;-98.496;2023-06-14T10:21:43;98104.01;;;27.00;56.38
77526;BME280;66627;29.424;-98.496;2023-06-14T10:24:05;98106.19;;;27.31;56.08
77526;BME280;66627;29.424;-98.496;2023-06-14T10:26:26;98110.56;;;27.05;56.20
77526;BME280;66627;29.424;-98.496;2023-06-14T10:28:58;98107.42;;;26.66;56.72
77526;BME280;66627;29.424;-98.496;2023-06-14T10:31:17;98110.24;;;27.05;56.70
77526;BME280;66627;29.424;-98.496;2023-06-14T10:33:49;98111.55;;;27.90;55.14
77526;BME280;66627;29.424;-98.496;2023-06-14T10:38:35;98113.04;;;27.69;54.93
77526;BME280;66627;29.424;-98.496;2023-06-14T10:40:59;98115.98;;;27.70;54.86
77526;BME280;66627;29.424;-98.496;2023-06-14T10:43:25;98121.32;;;27.20;56.03
77526;BME280;66627;29.424;-98.496;2023-06-14T10:50:43;98123.40;;;27.44;55.25
77526;BME280;66627;29.424;-98.496;2023-06-14T10:55:35;98125.73;;;27.44;55.69
77526;BME280;66627;29.424;-98.496;2023-06-14T10:57:57;98126.17;;;27.85;54.93
77526;BME280;66627;29.424;-98.496;2023-06-14T11:00:24;98132.49;;;26.81;56.54
77526;BME280;66627;29.424;-98.496;2023-06-14T11:05:15;98131.00;;;27.94;54.59
77526;BME280;66627;29.424;-98.496;2023-06-14T11:07:48;98130.13;;;28.18;53.88
77526;BME280;66627;29.424;-98.496;2023-06-14T11:10:14;98130.29;;;28.23;53.86
77526;BME280;66627;29.424;-98.496;2023-06-14T11:12:33;98125.42;;;28.30;53.16
77526;BME280;66627;29.424;-98.496;2023-06-14T11:14:56;98121.10;;;28.61;52.73
77526;BME280;66627;29.424;-98.496;2023-06-14T11:17:22;98122.91;;;27.81;54.10
77526;BME280;66627;29.424;-98.496;2023-06-14T11:19:47;98115.44;;;28.40;52.96
77526;BME280;66627;29.424;-98.496;2023-06-14T11:22:12;98112.03;;;28.32;53.21
77526;BME280;66627;29.424;-98.496;2023-06-14T11:24:37;98112.62;;;28.06;53.47
77526;BME280;66627;29.424;-98.496;2023-06-14T11:27:03;98115.15;;;28.03;53.38
77526;BME280;66627;29.424;-98.496;2023-06-14T11:29:30;98122.15;;;27.71;53.83
77526;BME280;66627;29.424;-98.496;2023-06-14T11:31:54;98126.57;;;27.61;54.57
77526;BME280;66627;29.424;-98.496;2023-06-14T11:34:19;98132.69;;;27.54;54.81
77526;BME280;66627;29.424;-98.496;2023-06-14T11:36:46;98126.27;;;27.75;54.44
77526;BME280;66627;29.424;-98.496;2023-06-14T11:39:11;98121.74;;;28.10;53.39
77526;BME280;66627;29.424;-98.496;2023-06-14T11:41:39;98112.13;;;28.52;52.91
77526;BME280;66627;29.424;-98.496;2023-06-14T11:46:27;98100.16;;;27.96;53.52
77526;BME280;66627;29.424;-98.496;2023-06-14T11:48:52;98099.82;;;27.81;53.95
77526;BME280;66627;29.424;-98.496;2023-06-14T11:51:18;98091.65;;;28.48;52.78
77526;BME280;66627;29.424;-98.496;2023-06-14T11:53:44;98101.15;;;27.53;54.68
77526;BME280;66627;29.424;-98.496;2023-06-14T11:56:08;98110.80;;;27.41;54.70
77526;BME280;66627;29.424;-98.496;2023-06-14T11:58:33;98114.93;;;27.37;55.07
77526;BME280;66627;29.424;-98.496;2023-06-14T12:00:59;98120.15;;;26.68;56.56
77526;BME280;66627;29.424;-98.496;2023-06-14T12:03:30;98120.59;;;27.03;55.48
77526;BME280;66627;29.424;-98.496;2023-06-14T12:05:50;98122.78;;;27.44;54.72
77526;BME280;66627;29.424;-98.496;2023-06-14T12:08:16;98126.58;;;27.88;55.01
77526;BME280;66627;29.424;-98.496;2023-06-14T12:10:42;98124.76;;;27.44;55.65
77526;BME280;66627;29.424;-98.496;2023-06-14T12:13:07;98128.84;;;27.45;54.95
77526;BME280;66627;29.424;-98.496;2023-06-14T12:15:33;98130.88;;;27.63;54.30
77526;BME280;66627;29.424;-98.496;2023-06-14T12:17:58;98128.78;;;27.32;54.63
77526;BME280;66627;29.424;-98.496;2023-06-14T12:20:28;98132.70;;;27.24;55.26
77526;BME280;66627;29.424;-98.496;2023-06-14T12:22:51;98135.93;;;26.53;56.09
77526;BME280;66627;29.424;-98.496;2023-06-14T12:25:24;98144.19;;;27.11;54.96
77526;BME280;66627;29.424;-98.496;2023-06-14T12:27:41;98144.39;;;26.40;56.45
77526;BME280;66627;29.424;-98.496;2023-06-14T12:30:07;98148.55;;;27.72;55.31
77526;BME280;66627;29.424;-98.496;2023-06-14T12:32:30;98156.31;;;26.49;57.68
77526;BME280;66627;29.424;-98.496;2023-06-14T12:34:55;98157.37;;;27.19;56.02
77526;BME280;66627;29.424;-98.496;2023-06-14T12:37:21;98155.83;;;26.52;57.53
77526;BME280;66627;29.424;-98.496;2023-06-14T12:39:46;98153.73;;;27.20;56.40
77526;BME280;66627;29.424;-98.496;2023-06-14T12:42:12;98157.56;;;26.54;57.23
77526;BME280;66627;29.424;-98.496;2023-06-14T12:44:38;98153.74;;;26.37;58.17
77526;BME280;66627;29.424;-98.496;2023-06-14T12:47:04;98155.13;;;26.65;58.24
77526;BME280;66627;29.424;-98.496;2023-06-14T12:49:28;98154.49;;;27.12;57.23